createdAt,value
2018-08-20T00:00:20.968Z,3.23
2018-08-20T00:02:50.400Z,2.97
2018-08-20T00:05:19.770Z,3.03
2018-08-20T00:07:49.280Z,2.83
2018-08-20T00:10:18.617Z,2.00
2018-08-20T00:12:47.972Z,2.53
2018-08-20T00:15:20.001Z,2.77
2018-08-20T00:17:49.370Z,3.60
2018-08-20T00:20:18.757Z,4.07
2018-08-20T00:22:48.126Z,2.97
2018-08-20T00:25:18.809Z,2.80
2018-08-20T00:27:49.257Z,2.70
2018-08-20T00:30:19.718Z,2.23
2018-08-20T00:32:49.744Z,2.17
2018-08-20T00:35:20.681Z,3.13
2018-08-20T00:37:51.465Z,4.27
2018-08-20T00:40:21.719Z,4.10
2018-08-20T00:42:51.068Z,2.47
2018-08-20T00:45:20.429Z,4.47
2018-08-20T00:47:49.745Z,2.87
2018-08-20T00:50:19.066Z,3.77
2018-08-20T00:52:48.405Z,2.90
2018-08-20T00:55:17.755Z,4.20
2018-08-20T00:57:47.095Z,4.13
2018-08-20T01:00:16.493Z,4.13
2018-08-20T01:02:45.807Z,6.00
2018-08-20T01:05:15.185Z,3.27
2018-08-20T01:07:44.509Z,4.23
2018-08-20T01:10:14.693Z,2.97
2018-08-20T01:12:44.081Z,2.23
2018-08-20T01:15:13.457Z,2.73
2018-08-20T01:17:42.804Z,7.13
2018-08-20T01:20:12.161Z,4.87
2018-08-20T01:22:41.505Z,3.07
2018-08-20T01:25:10.927Z,4.17
2018-08-20T01:27:40.303Z,4.37
2018-08-20T01:30:09.699Z,5.63
2018-08-20T01:32:39.076Z,3.43
2018-08-20T01:35:24.806Z,4.50
2018-08-20T01:37:54.145Z,5.17
2018-08-20T01:40:23.933Z,7.23
2018-08-20T01:42:53.277Z,5.00
2018-08-20T01:45:22.644Z,3.80
2018-08-20T01:47:52.004Z,5.87
2018-08-20T01:50:21.332Z,3.97
2018-08-20T01:52:50.673Z,6.43
2018-08-20T01:55:20.101Z,2.37
2018-08-20T01:57:49.435Z,5.70
2018-08-20T02:00:18.808Z,5.07
2018-08-20T02:02:53.367Z,5.93
2018-08-20T02:05:23.679Z,5.73
2018-08-20T02:07:53.909Z,4.00
2018-08-20T02:10:23.310Z,5.43
2018-08-20T02:12:52.638Z,5.13
2018-08-20T02:15:22.330Z,5.20
2018-08-20T02:17:51.703Z,7.00
2018-08-20T02:20:21.088Z,3.67
2018-08-20T02:22:50.496Z,6.43
2018-08-20T02:25:19.900Z,5.00
2018-08-20T02:27:49.282Z,5.07
2018-08-20T02:30:18.927Z,3.97
2018-08-20T02:32:48.284Z,9.17
2018-08-20T02:35:18.129Z,3.83
2018-08-20T02:37:48.490Z,5.13
2018-08-20T02:40:18.684Z,5.87
2018-08-20T02:42:48.204Z,6.60
2018-08-20T02:45:18.723Z,5.53
2018-08-20T02:47:54.613Z,4.97
2018-08-20T02:50:23.931Z,6.07
2018-08-20T02:52:53.274Z,6.80
2018-08-20T02:55:22.656Z,6.33
2018-08-20T02:57:52.022Z,6.03
2018-08-20T03:00:22.017Z,7.13
2018-08-20T03:02:51.359Z,5.63
2018-08-20T03:05:20.739Z,8.50
2018-08-20T03:07:50.102Z,5.80
2018-08-20T03:10:19.444Z,6.30
2018-08-20T03:12:48.770Z,6.67
2018-08-20T03:15:18.104Z,5.90
2018-08-20T03:17:47.482Z,6.70
2018-08-20T03:20:16.854Z,6.73
2018-08-20T03:22:46.515Z,9.27
2018-08-20T03:25:15.916Z,8.47
2018-08-20T03:27:45.301Z,6.97
2018-08-20T03:30:14.718Z,8.43
2018-08-20T03:32:44.112Z,7.27
2018-08-20T03:35:13.451Z,9.00
2018-08-20T03:37:42.836Z,7.93
2018-08-20T03:40:13.030Z,8.87
2018-08-20T03:42:42.864Z,7.40
2018-08-20T03:45:12.537Z,8.50
2018-08-20T03:47:42.118Z,8.90
2018-08-20T03:50:14.481Z,8.57
2018-08-20T03:52:43.867Z,9.40
2018-08-20T03:55:13.204Z,9.17
2018-08-20T03:57:42.572Z,8.20
2018-08-20T04:00:12.577Z,10.10
2018-08-20T04:02:42.030Z,9.83
2018-08-20T04:05:11.363Z,9.43
2018-08-20T04:07:47.388Z,7.57
2018-08-20T04:10:16.716Z,8.60
2018-08-20T04:12:46.026Z,9.57
2018-08-20T04:15:15.388Z,9.93
2018-08-20T04:17:44.980Z,9.17
2018-08-20T04:20:14.310Z,8.83
2018-08-20T04:22:43.626Z,11.63
2018-08-20T04:25:13.052Z,11.57
2018-08-20T04:27:42.417Z,7.53
2018-08-20T04:30:11.776Z,12.30
2018-08-20T04:32:41.105Z,8.63
2018-08-20T04:35:10.502Z,10.57
2018-08-20T04:37:39.873Z,9.30
2018-08-20T04:40:09.252Z,8.07
2018-08-20T04:42:38.603Z,11.30
2018-08-20T04:45:08.750Z,9.07
2018-08-20T04:47:38.226Z,13.37
2018-08-20T04:50:10.231Z,9.40
2018-08-20T04:52:40.177Z,12.47
2018-08-20T04:55:09.944Z,10.67
2018-08-20T04:57:39.334Z,10.63
2018-08-20T05:00:10.880Z,10.93
2018-08-20T05:02:40.273Z,11.63
2018-08-20T05:05:09.647Z,9.47
2018-08-20T05:07:39.022Z,13.47
2018-08-20T05:10:08.614Z,10.33
2018-08-20T05:12:37.874Z,12.77
2018-08-20T05:15:07.654Z,10.80
2018-08-20T05:17:37.057Z,12.07
2018-08-20T05:20:07.352Z,8.67
2018-08-20T05:22:36.689Z,14.13
2018-08-20T05:25:06.828Z,10.93
2018-08-20T05:27:36.225Z,10.43
2018-08-20T05:30:06.969Z,10.73
2018-08-20T05:32:36.336Z,10.90
2018-08-20T05:35:07.028Z,12.53
2018-08-20T05:37:36.517Z,12.87
2018-08-20T05:40:05.941Z,12.07
2018-08-20T05:42:35.292Z,16.03
2018-08-20T05:45:05.306Z,12.00
2018-08-20T05:47:34.629Z,16.53
2018-08-20T05:50:04.069Z,15.50
2018-08-20T05:52:33.475Z,16.20
2018-08-20T05:55:03.342Z,14.57
2018-08-20T05:57:32.809Z,19.33
2018-08-20T06:00:02.286Z,13.10
2018-08-20T06:02:31.636Z,15.73
2018-08-20T06:05:00.976Z,16.97
2018-08-20T06:07:30.334Z,14.53
2018-08-20T06:09:59.709Z,17.13
2018-08-20T06:12:29.085Z,14.17
2018-08-20T06:14:58.419Z,17.03
2018-08-20T06:17:27.902Z,18.57
2018-08-20T06:19:57.297Z,14.27
2018-08-20T06:22:26.680Z,19.07
2018-08-20T06:24:56.047Z,15.33
2018-08-20T06:27:25.402Z,14.83
2018-08-20T06:29:55.064Z,15.57
2018-08-20T06:32:24.410Z,19.80
2018-08-20T06:34:53.770Z,19.07
2018-08-20T06:37:23.109Z,17.73
2018-08-20T06:39:52.502Z,14.23
2018-08-20T06:42:21.878Z,16.33
2018-08-20T06:44:51.218Z,15.63
2018-08-20T06:47:20.565Z,15.93
2018-08-20T06:49:49.937Z,17.50
2018-08-20T06:52:19.289Z,19.33
2018-08-20T06:54:48.618Z,17.07
2018-08-20T06:57:18.018Z,17.80
2018-08-20T06:59:47.481Z,19.00
2018-08-20T07:02:16.880Z,19.77
2018-08-20T07:04:46.324Z,21.63
2018-08-20T07:07:15.734Z,20.87
2018-08-20T07:09:45.119Z,21.37
2018-08-20T07:12:14.513Z,23.60
2018-08-20T07:14:44.034Z,23.00
2018-08-20T07:17:13.733Z,21.70
2018-08-20T07:19:43.625Z,21.50
2018-08-20T07:22:13.407Z,19.90
2018-08-20T07:24:42.737Z,19.80
2018-08-20T07:27:12.103Z,20.87
2018-08-20T07:29:45.597Z,21.17
2018-08-20T07:32:16.154Z,19.37
2018-08-20T07:34:46.853Z,19.20
2018-08-20T07:37:17.355Z,23.03
2018-08-20T07:39:47.902Z,19.57
2018-08-20T07:42:17.253Z,17.77
2018-08-20T07:44:47.196Z,18.57
2018-08-20T07:47:17.009Z,20.13
2018-08-20T07:49:46.414Z,18.83
2018-08-20T07:52:15.764Z,23.17
2018-08-20T07:54:45.331Z,22.33
2018-08-20T07:57:14.911Z,19.80
2018-08-20T07:59:44.319Z,19.17
2018-08-20T08:02:13.914Z,20.43
2018-08-20T08:04:43.293Z,21.60
2018-08-20T08:07:12.692Z,19.77
2018-08-20T08:09:42.429Z,18.73
2018-08-20T08:12:11.785Z,22.83
2018-08-20T08:14:41.203Z,19.87
2018-08-20T08:17:14.881Z,19.73
2018-08-20T08:19:44.445Z,22.50
2018-08-20T08:22:13.974Z,21.20
2018-08-20T08:24:43.369Z,23.77
2018-08-20T08:27:12.768Z,22.40
2018-08-20T08:29:42.185Z,26.13
2018-08-20T08:32:11.562Z,19.17
2018-08-20T08:34:40.937Z,21.60
2018-08-20T08:37:10.381Z,21.60
2018-08-20T08:39:40.801Z,23.53
2018-08-20T08:42:10.158Z,22.57
2018-08-20T08:44:39.533Z,26.10
2018-08-20T08:47:08.906Z,20.20
2018-08-20T08:49:38.292Z,21.30
2018-08-20T08:52:07.913Z,22.73
2018-08-20T08:54:37.337Z,20.47
2018-08-20T08:57:06.813Z,19.23
2018-08-20T08:59:36.218Z,19.67
2018-08-20T09:02:12.266Z,22.50
2018-08-20T09:04:41.613Z,23.53
2018-08-20T09:07:10.945Z,20.37
2018-08-20T09:09:40.388Z,20.83
2018-08-20T09:12:10.137Z,23.93
2018-08-20T09:14:39.534Z,21.93
2018-08-20T09:17:08.892Z,23.13
2018-08-20T09:19:38.760Z,24.50
2018-08-20T09:22:09.085Z,24.53
2018-08-20T09:24:38.450Z,22.93
2018-08-20T09:27:07.830Z,22.77
2018-08-20T09:29:37.213Z,19.40
2018-08-20T09:32:06.685Z,19.23
2018-08-20T09:34:36.013Z,19.33
2018-08-20T09:37:05.381Z,21.03
2018-08-20T09:39:35.314Z,19.03
2018-08-20T09:42:04.738Z,22.77
2018-08-20T09:44:34.078Z,25.13
2018-08-20T09:47:03.457Z,16.80
2018-08-20T09:49:32.813Z,25.20
2018-08-20T09:52:02.241Z,21.30
2018-08-20T09:54:31.580Z,20.93
2018-08-20T09:57:00.943Z,18.13
2018-08-20T09:59:30.565Z,17.83
2018-08-20T10:02:00.505Z,20.03
2018-08-20T10:04:29.846Z,21.03
2018-08-20T10:06:59.190Z,21.43
2018-08-20T10:09:29.320Z,17.97
2018-08-20T10:11:58.689Z,17.87
2018-08-20T10:14:28.012Z,19.47
2018-08-20T10:16:57.796Z,20.33
2018-08-20T10:19:27.197Z,18.87
2018-08-20T10:21:56.591Z,18.43
2018-08-20T10:24:25.961Z,18.60
2018-08-20T10:26:55.317Z,22.00
2018-08-20T10:29:24.661Z,18.97
2018-08-20T10:31:54.094Z,18.63
2018-08-20T10:34:23.473Z,22.57
2018-08-20T10:36:52.806Z,19.83
2018-08-20T10:39:22.161Z,18.10
2018-08-20T10:41:51.553Z,21.23
2018-08-20T10:44:20.897Z,21.40
2018-08-20T10:46:50.258Z,18.80
2018-08-20T10:49:19.630Z,21.23
2018-08-20T10:51:49.016Z,20.57
2018-08-20T10:54:18.360Z,20.57
2018-08-20T10:56:47.703Z,18.97
2018-08-20T10:59:17.310Z,20.57
2018-08-20T11:01:53.499Z,19.53
2018-08-20T11:04:22.833Z,23.33
2018-08-20T11:06:52.161Z,19.93
2018-08-20T11:09:21.514Z,20.80
2018-08-20T11:11:50.924Z,18.13
2018-08-20T11:14:20.253Z,21.17
2018-08-20T11:16:49.594Z,20.13
2018-08-20T11:19:18.983Z,22.83
2018-08-20T11:21:48.432Z,17.20
2018-08-20T11:24:17.770Z,19.27
2018-08-20T11:26:47.202Z,17.77
2018-08-20T11:29:16.527Z,17.43
2018-08-20T11:31:45.904Z,17.20
2018-08-20T11:34:15.277Z,19.60
2018-08-20T11:36:44.676Z,18.27
2018-08-20T11:39:13.990Z,14.87
2018-08-20T11:41:43.362Z,13.77
2018-08-20T11:44:12.759Z,18.03
2018-08-20T11:46:42.088Z,16.30
2018-08-20T11:49:11.484Z,16.77
2018-08-20T11:51:40.854Z,17.63
2018-08-20T11:54:10.222Z,18.30
2018-08-20T11:56:39.936Z,15.53
2018-08-20T11:59:09.294Z,15.23
2018-08-20T12:01:38.686Z,16.33
2018-08-20T12:04:08.093Z,20.67
2018-08-20T12:06:37.441Z,18.80
2018-08-20T12:09:07.629Z,15.03
2018-08-20T12:11:37.055Z,15.93
2018-08-20T12:14:06.470Z,14.60
2018-08-20T12:16:35.797Z,15.27
2018-08-20T12:19:05.162Z,17.33
2018-08-20T12:21:34.520Z,16.90
2018-08-20T12:24:03.919Z,15.90
2018-08-20T12:26:33.269Z,16.07
2018-08-20T12:29:02.725Z,18.73
2018-08-20T12:31:32.081Z,17.87
2018-08-20T12:34:01.515Z,18.63
2018-08-20T12:36:30.841Z,15.73
2018-08-20T12:39:07.257Z,16.07
2018-08-20T12:41:36.624Z,15.87
2018-08-20T12:44:06.046Z,19.37
2018-08-20T12:46:35.366Z,15.17
2018-08-20T12:49:04.717Z,16.40
2018-08-20T12:51:34.089Z,16.93
2018-08-20T12:54:03.514Z,22.77
2018-08-20T12:56:32.828Z,15.77
2018-08-20T12:59:02.173Z,16.00
2018-08-20T13:01:31.547Z,19.00
2018-08-20T13:04:00.895Z,16.90
2018-08-20T13:06:30.246Z,14.17
2018-08-20T13:08:59.647Z,16.07
2018-08-20T13:11:28.985Z,16.13
2018-08-20T13:13:58.379Z,18.23
2018-08-20T13:16:27.725Z,18.77
2018-08-20T13:18:57.075Z,17.07
2018-08-20T13:21:26.457Z,18.47
2018-08-20T13:23:55.838Z,18.80
2018-08-20T13:26:25.187Z,15.37
2018-08-20T13:28:54.529Z,17.30
2018-08-20T13:31:23.878Z,17.57
2018-08-20T13:33:53.265Z,24.23
2018-08-20T13:36:22.997Z,20.90
2018-08-20T13:38:52.349Z,21.93
2018-08-20T13:41:21.706Z,19.13
2018-08-20T13:43:51.405Z,21.80
2018-08-20T13:46:20.735Z,22.00
2018-08-20T13:48:50.089Z,17.30
2018-08-20T13:51:19.464Z,17.00
2018-08-20T13:53:48.849Z,23.40
2018-08-20T13:56:18.193Z,20.67
2018-08-20T13:58:47.964Z,20.37
2018-08-20T14:01:17.378Z,16.00
2018-08-20T14:03:46.810Z,17.57
2018-08-20T14:06:16.182Z,17.00
2018-08-20T14:08:45.533Z,17.00
2018-08-20T14:11:14.902Z,18.53
2018-08-20T14:13:45.296Z,15.97
2018-08-20T14:16:14.730Z,12.40
2018-08-20T14:18:44.086Z,13.93
2018-08-20T14:21:15.167Z,10.57
2018-08-20T14:23:46.751Z,11.33
2018-08-20T14:26:16.218Z,10.60
2018-08-20T14:28:45.624Z,9.83
2018-08-20T14:31:14.965Z,16.87
2018-08-20T14:33:45.222Z,11.57
2018-08-20T14:36:14.598Z,8.77
2018-08-20T14:38:43.954Z,8.20
2018-08-20T14:41:13.273Z,11.17
2018-08-20T14:43:42.681Z,12.20
2018-08-20T14:46:17.323Z,9.37
2018-08-20T14:48:46.648Z,9.73
2018-08-20T14:51:16.098Z,10.90
2018-08-20T14:53:45.936Z,11.50
2018-08-20T14:56:15.306Z,10.83
2018-08-20T14:58:44.865Z,13.40
2018-08-20T15:01:14.219Z,10.17
2018-08-20T15:03:43.577Z,8.97
2018-08-20T15:06:12.957Z,11.07
2018-08-20T15:08:42.309Z,9.40
2018-08-20T15:11:11.661Z,9.43
2018-08-20T15:13:41.249Z,10.27
2018-08-20T15:16:10.669Z,8.87
2018-08-20T15:18:39.986Z,12.33
2018-08-20T15:21:13.825Z,13.53
2018-08-20T15:23:43.161Z,12.53
2018-08-20T15:26:12.542Z,11.23
2018-08-20T15:28:42.545Z,11.20
2018-08-20T15:31:11.873Z,7.53
2018-08-20T15:33:41.224Z,9.20
2018-08-20T15:36:10.614Z,8.63
2018-08-20T15:38:39.953Z,9.53
2018-08-20T15:41:09.543Z,12.67
2018-08-20T15:43:38.909Z,7.80
2018-08-20T15:46:08.390Z,6.90
2018-08-20T15:48:37.960Z,7.20
2018-08-20T15:51:14.088Z,6.17
2018-08-20T15:53:43.429Z,6.70
2018-08-20T15:56:12.816Z,10.00
2018-08-20T15:58:42.249Z,8.40
2018-08-20T16:01:11.854Z,7.27
2018-08-20T16:03:41.216Z,9.40
2018-08-20T16:06:10.621Z,7.13
2018-08-20T16:08:39.972Z,5.90
2018-08-20T16:11:09.346Z,6.43
2018-08-20T16:13:38.698Z,10.17
2018-08-20T16:16:08.803Z,6.00
2018-08-20T16:18:38.134Z,8.37
2018-08-20T16:21:07.475Z,5.33
2018-08-20T16:23:36.862Z,4.93
2018-08-20T16:26:06.277Z,5.60
2018-08-20T16:28:35.603Z,5.47
2018-08-20T16:31:04.991Z,4.60
2018-08-20T16:33:37.281Z,8.57
2018-08-20T16:36:06.767Z,5.23
2018-08-20T16:38:36.137Z,7.10
2018-08-20T16:41:05.553Z,4.53
2018-08-20T16:43:35.402Z,6.07
2018-08-20T16:46:04.822Z,3.50
2018-08-20T16:48:34.163Z,3.73
2018-08-20T16:51:03.645Z,5.13
2018-08-20T16:53:33.029Z,4.33
2018-08-20T16:56:02.533Z,4.13
2018-08-20T16:58:31.877Z,4.70
2018-08-20T17:01:01.228Z,4.27
2018-08-20T17:03:31.029Z,4.20
2018-08-20T17:06:00.434Z,3.93
2018-08-20T17:08:31.720Z,3.20
2018-08-20T17:11:01.270Z,2.87
2018-08-20T17:13:31.184Z,4.80
2018-08-20T17:16:00.597Z,3.50
2018-08-20T17:18:29.977Z,3.20
2018-08-20T17:20:59.344Z,3.93
2018-08-20T17:23:28.757Z,3.00
2018-08-20T17:25:58.453Z,5.13
2018-08-20T17:28:28.190Z,3.80
2018-08-20T17:31:03.715Z,4.60
2018-08-20T17:33:35.002Z,5.10
2018-08-20T17:36:05.330Z,4.97
2018-08-20T17:38:34.700Z,2.70
2018-08-20T17:41:04.098Z,2.27
2018-08-20T17:43:33.505Z,2.50
2018-08-20T17:46:02.878Z,3.67
2018-08-20T17:48:33.545Z,5.23
2018-08-20T17:51:03.313Z,2.30
2018-08-20T17:53:51.573Z,4.13
2018-08-20T17:56:20.933Z,3.33
2018-08-20T17:58:59.588Z,2.00
2018-08-20T18:01:29.236Z,4.33
2018-08-20T18:03:58.593Z,3.27
2018-08-20T18:06:48.109Z,5.33
2018-08-20T18:09:17.461Z,3.63
2018-08-20T18:11:49.167Z,2.50
2018-08-20T18:14:20.269Z,3.17
2018-08-20T18:16:49.755Z,2.87
2018-08-20T18:19:19.562Z,5.20
2018-08-20T18:21:49.164Z,2.10
2018-08-20T18:24:20.362Z,5.30
2018-08-20T18:26:52.969Z,7.87
2018-08-20T18:29:22.419Z,4.10
2018-08-20T18:31:55.417Z,2.53
2018-08-20T18:34:24.861Z,3.30
2018-08-20T18:36:54.220Z,4.33
2018-08-20T18:39:23.998Z,3.90
2018-08-20T18:41:58.600Z,4.53
2018-08-20T18:44:27.985Z,4.30
2018-08-20T18:46:57.389Z,6.30
2018-08-20T18:49:27.143Z,6.23
2018-08-20T18:52:04.205Z,3.17
2018-08-20T18:54:40.539Z,4.00
2018-08-20T18:57:09.982Z,4.33
2018-08-20T18:59:40.350Z,3.63
2018-08-20T19:02:18.369Z,4.07
2018-08-20T19:04:49.644Z,5.37
2018-08-20T19:07:25.740Z,2.40
2018-08-20T19:09:55.157Z,5.47
2018-08-20T19:12:24.513Z,3.33
2018-08-20T19:14:53.881Z,4.93
2018-08-20T19:17:28.060Z,4.37
2018-08-20T19:20:02.208Z,3.37
2018-08-20T19:22:31.594Z,3.67
2018-08-20T19:25:00.946Z,1.97
2018-08-20T19:27:36.941Z,4.20
2018-08-20T19:30:17.057Z,2.87
2018-08-20T19:32:47.099Z,5.03
2018-08-20T19:35:16.489Z,4.17
2018-08-20T19:37:45.885Z,4.03
2018-08-20T19:40:15.315Z,3.00
2018-08-20T19:42:44.654Z,2.67
2018-08-20T19:45:14.409Z,2.57
2018-08-20T19:47:43.754Z,6.17
2018-08-20T19:50:13.437Z,4.03
2018-08-20T19:52:42.798Z,4.47
2018-08-20T19:55:12.844Z,5.07
2018-08-20T19:57:42.382Z,3.23
2018-08-20T20:00:14.240Z,4.20
2018-08-20T20:02:44.636Z,2.70
2018-08-20T20:05:15.550Z,3.67
2018-08-20T20:07:55.275Z,6.30
2018-08-20T20:10:24.777Z,3.77
2018-08-20T20:12:55.246Z,5.03
2018-08-20T20:15:25.589Z,6.57
2018-08-20T20:17:57.744Z,5.77
2018-08-20T20:20:27.122Z,3.10
2018-08-20T20:22:56.498Z,4.50
2018-08-20T20:25:25.811Z,7.93
2018-08-20T20:27:55.165Z,3.53
2018-08-20T20:30:24.554Z,3.67
2018-08-20T20:32:53.880Z,5.53
2018-08-20T20:35:23.245Z,3.43
2018-08-20T20:37:52.619Z,4.00
2018-08-20T20:40:22.002Z,5.97
2018-08-20T20:42:51.381Z,5.43
2018-08-20T20:45:20.741Z,3.47
2018-08-20T20:47:50.094Z,2.80
2018-08-20T20:50:19.490Z,4.53
2018-08-20T20:52:48.814Z,7.67
2018-08-20T20:55:18.147Z,9.97
2018-08-20T20:57:47.498Z,7.87
2018-08-20T21:00:16.883Z,3.70
2018-08-20T21:02:46.221Z,5.37
2018-08-20T21:05:15.590Z,4.30
2018-08-20T21:07:44.982Z,3.43
2018-08-20T21:10:14.988Z,3.80
2018-08-20T21:12:44.346Z,6.93
2018-08-20T21:15:13.709Z,5.87
2018-08-20T21:17:43.081Z,6.33
2018-08-20T21:20:12.540Z,4.20
2018-08-20T21:22:41.881Z,6.17
2018-08-20T21:25:11.237Z,4.97
2018-08-20T21:27:40.598Z,3.47
2018-08-20T21:30:10.026Z,2.90
2018-08-20T21:32:39.374Z,2.40
2018-08-20T21:35:08.703Z,2.67
2018-08-20T21:37:38.071Z,5.33
2018-08-20T21:40:07.518Z,3.30
2018-08-20T21:42:41.684Z,3.00
2018-08-20T21:45:11.377Z,2.90
2018-08-20T21:47:40.703Z,3.63
2018-08-20T21:50:10.145Z,5.83
2018-08-20T21:52:39.821Z,3.10
2018-08-20T21:55:09.202Z,4.50
2018-08-20T21:57:42.590Z,3.10
2018-08-20T22:00:16.313Z,2.90
2018-08-20T22:02:48.643Z,5.97
2018-08-20T22:05:18.025Z,2.77
2018-08-20T22:07:47.588Z,2.93
2018-08-20T22:10:17.114Z,4.70
2018-08-20T22:12:46.348Z,4.97
2018-08-20T22:15:15.700Z,3.70
2018-08-20T22:17:45.117Z,3.50
2018-08-20T22:20:14.513Z,4.33
2018-08-20T22:22:43.942Z,4.67
2018-08-20T22:25:17.213Z,4.97
2018-08-20T22:27:51.905Z,4.70
2018-08-20T22:30:21.314Z,3.10
2018-08-20T22:32:50.705Z,5.37
2018-08-20T22:35:26.195Z,6.07
2018-08-20T22:37:55.557Z,3.63
2018-08-20T22:40:24.967Z,4.13
2018-08-20T22:42:58.245Z,4.67
2018-08-20T22:45:27.620Z,3.47
2018-08-20T22:47:56.981Z,3.57
2018-08-20T22:50:26.476Z,4.03
2018-08-20T22:52:56.181Z,6.83
2018-08-20T22:55:25.549Z,3.40
2018-08-20T22:58:10.509Z,4.53
2018-08-20T23:00:39.960Z,10.30
2018-08-20T23:03:09.332Z,4.53
2018-08-20T23:05:38.752Z,3.53
2018-08-20T23:08:14.585Z,4.20
2018-08-20T23:10:44.133Z,2.73
2018-08-20T23:13:13.561Z,3.20
2018-08-20T23:15:42.921Z,3.50
2018-08-20T23:18:12.263Z,3.23
2018-08-20T23:20:41.696Z,3.43
2018-08-20T23:23:11.082Z,3.17
2018-08-20T23:25:40.680Z,3.80
2018-08-20T23:28:10.061Z,4.67
2018-08-20T23:30:41.463Z,3.07
2018-08-20T23:33:10.853Z,2.90
2018-08-20T23:35:40.184Z,3.23
2018-08-20T23:38:09.577Z,3.13
2018-08-20T23:40:38.934Z,3.17
2018-08-20T23:43:08.498Z,5.37
2018-08-20T23:45:37.815Z,4.10
2018-08-20T23:48:07.161Z,5.10
2018-08-20T23:50:36.592Z,3.30
2018-08-20T23:53:05.977Z,4.13
2018-08-20T23:55:35.862Z,6.17
2018-08-20T23:58:05.229Z,5.10
